sensor_id;sensor_type;location;lat;lon;timestamp;P1;durP1;ratioP1;P2;durP2;ratioP2
37483;SDS011;23337;52.212;9.926;2022-07-23T00:01:24;7.17;;;6.30;;
37483;SDS011;23337;52.212;9.926;2022-07-23T00:03:52;8.43;;;6.63;;
37483;SDS011;23337;52.212;9.926;2022-07-23T00:06:19;10.37;;;6.97;;
37483;SDS011;23337;52.212;9.926;2022-07-23T00:08:45;7.83;;;6.70;;
37483;SDS011;23337;52.212;9.926;2022-07-23T00:11:11;7.93;;;6.73;;
37483;SDS011;23337;52.212;9.926;2022-07-23T00:13:37;7.20;;;6.30;;
37483;SDS011;23337;52.212;9.926;2022-07-23T00:16:03;8.13;;;6.73;;
37483;SDS011;23337;52.212;9.926;2022-07-23T00:18:29;7.63;;;6.83;;
37483;SDS011;23337;52.212;9.926;2022-07-23T00:20:55;12.80;;;6.77;;
37483;SDS011;23337;52.212;9.926;2022-07-23T00:23:21;7.77;;;6.60;;
37483;SDS011;23337;52.212;9.926;2022-07-23T00:25:49;8.47;;;6.50;;
37483;SDS011;23337;52.212;9.926;2022-07-23T00:28:15;10.00;;;6.47;;
37483;SDS011;23337;52.212;9.926;2022-07-23T00:30:41;9.30;;;7.30;;
37483;SDS011;23337;52.212;9.926;2022-07-23T00:33:07;6.53;;;5.90;;
37483;SDS011;23337;52.212;9.926;2022-07-23T00:35:34;9.73;;;6.57;;
37483;SDS011;23337;52.212;9.926;2022-07-23T00:38:02;9.70;;;6.77;;
37483;SDS011;23337;52.212;9.926;2022-07-23T00:40:28;10.93;;;6.07;;
37483;SDS011;23337;52.212;9.926;2022-07-23T00:42:54;7.77;;;5.80;;
37483;SDS011;23337;52.212;9.926;2022-07-23T00:45:20;8.00;;;6.30;;
37483;SDS011;23337;52.212;9.926;2022-07-23T00:47:47;7.00;;;6.40;;
37483;SDS011;23337;52.212;9.926;2022-07-23T00:50:13;7.27;;;5.97;;
37483;SDS011;23337;52.212;9.926;2022-07-23T00:52:40;7.17;;;6.03;;
37483;SDS011;23337;52.212;9.926;2022-07-23T00:55:06;8.67;;;6.73;;
37483;SDS011;23337;52.212;9.926;2022-07-23T00:57:33;8.93;;;6.00;;
37483;SDS011;23337;52.212;9.926;2022-07-23T00:59:59;6.57;;;5.37;;
37483;SDS011;23337;52.212;9.926;2022-07-23T01:02:25;6.77;;;5.67;;
37483;SDS011;23337;52.212;9.926;2022-07-23T01:04:51;6.27;;;5.47;;
37483;SDS011;23337;52.212;9.926;2022-07-23T01:07:17;6.30;;;5.70;;
37483;SDS011;23337;52.212;9.926;2022-07-23T01:09:44;6.57;;;5.50;;
37483;SDS011;23337;52.212;9.926;2022-07-23T01:12:10;5.93;;;5.40;;
37483;SDS011;23337;52.212;9.926;2022-07-23T01:14:36;5.83;;;5.23;;
37483;SDS011;23337;52.212;9.926;2022-07-23T01:17:02;8.77;;;6.17;;
37483;SDS011;23337;52.212;9.926;2022-07-23T01:19:28;6.80;;;5.23;;
37483;SDS011;23337;52.212;9.926;2022-07-23T01:21:54;6.03;;;5.30;;
37483;SDS011;23337;52.212;9.926;2022-07-23T01:24:21;7.00;;;5.90;;
37483;SDS011;23337;52.212;9.926;2022-07-23T01:26:48;7.47;;;5.60;;
37483;SDS011;23337;52.212;9.926;2022-07-23T01:29:15;8.33;;;6.60;;
37483;SDS011;23337;52.212;9.926;2022-07-23T01:31:41;6.80;;;5.63;;
37483;SDS011;23337;52.212;9.926;2022-07-23T01:34:08;6.70;;;5.97;;
37483;SDS011;23337;52.212;9.926;2022-07-23T01:36:34;5.73;;;5.10;;
37483;SDS011;23337;52.212;9.926;2022-07-23T01:39:00;6.93;;;5.73;;
37483;SDS011;23337;52.212;9.926;2022-07-23T01:41:26;7.07;;;5.93;;
37483;SDS011;23337;52.212;9.926;2022-07-23T01:43:52;8.10;;;5.90;;
37483;SDS011;23337;52.212;9.926;2022-07-23T01:46:18;8.17;;;5.63;;
37483;SDS011;23337;52.212;9.926;2022-07-23T01:48:44;8.07;;;6.77;;
37483;SDS011;23337;52.212;9.926;2022-07-23T01:51:10;10.63;;;6.83;;
37483;SDS011;23337;52.212;9.926;2022-07-23T01:53:36;8.53;;;7.23;;
37483;SDS011;23337;52.212;9.926;2022-07-23T01:56:02;10.33;;;8.03;;
37483;SDS011;23337;52.212;9.926;2022-07-23T01:58:28;9.40;;;8.33;;
37483;SDS011;23337;52.212;9.926;2022-07-23T02:00:54;10.57;;;7.93;;
37483;SDS011;23337;52.212;9.926;2022-07-23T02:03:21;9.17;;;8.27;;
37483;SDS011;23337;52.212;9.926;2022-07-23T02:05:47;9.30;;;7.50;;
37483;SDS011;23337;52.212;9.926;2022-07-23T02:08:13;10.13;;;7.37;;
37483;SDS011;23337;52.212;9.926;2022-07-23T02:10:39;10.73;;;8.67;;
37483;SDS011;23337;52.212;9.926;2022-07-23T02:13:05;8.47;;;7.60;;
37483;SDS011;23337;52.212;9.926;2022-07-23T02:15:31;8.73;;;7.93;;
37483;SDS011;23337;52.212;9.926;2022-07-23T02:17:57;8.27;;;7.43;;
37483;SDS011;23337;52.212;9.926;2022-07-23T02:20:23;7.97;;;7.00;;
37483;SDS011;23337;52.212;9.926;2022-07-23T02:22:49;8.10;;;7.37;;
37483;SDS011;23337;52.212;9.926;2022-07-23T02:25:15;11.80;;;7.10;;
37483;SDS011;23337;52.212;9.926;2022-07-23T02:27:42;10.67;;;7.57;;
37483;SDS011;23337;52.212;9.926;2022-07-23T02:30:08;7.80;;;7.00;;
37483;SDS011;23337;52.212;9.926;2022-07-23T02:32:34;8.17;;;7.37;;
37483;SDS011;23337;52.212;9.926;2022-07-23T02:35:01;7.77;;;6.73;;
37483;SDS011;23337;52.212;9.926;2022-07-23T02:37:27;11.13;;;7.37;;
37483;SDS011;23337;52.212;9.926;2022-07-23T02:39:52;8.27;;;7.57;;
37483;SDS011;23337;52.212;9.926;2022-07-23T02:42:18;9.53;;;7.00;;
37483;SDS011;23337;52.212;9.926;2022-07-23T02:44:44;10.93;;;7.37;;
37483;SDS011;23337;52.212;9.926;2022-07-23T02:47:10;9.63;;;7.73;;
37483;SDS011;23337;52.212;9.926;2022-07-23T02:49:36;9.60;;;8.57;;
37483;SDS011;23337;52.212;9.926;2022-07-23T02:52:03;9.80;;;7.47;;
37483;SDS011;23337;52.212;9.926;2022-07-23T02:54:29;9.13;;;7.97;;
37483;SDS011;23337;52.212;9.926;2022-07-23T02:56:55;10.40;;;8.40;;
37483;SDS011;23337;52.212;9.926;2022-07-23T02:59:20;12.07;;;8.40;;
37483;SDS011;23337;52.212;9.926;2022-07-23T03:01:46;8.43;;;7.63;;
37483;SDS011;23337;52.212;9.926;2022-07-23T03:04:12;9.93;;;8.40;;
37483;SDS011;23337;52.212;9.926;2022-07-23T03:06:38;8.30;;;7.40;;
37483;SDS011;23337;52.212;9.926;2022-07-23T03:09:06;9.53;;;7.97;;
37483;SDS011;23337;52.212;9.926;2022-07-23T03:11:32;8.93;;;7.37;;
37483;SDS011;23337;52.212;9.926;2022-07-23T03:13:58;8.93;;;8.00;;
37483;SDS011;23337;52.212;9.926;2022-07-23T03:16:24;9.57;;;8.10;;
37483;SDS011;23337;52.212;9.926;2022-07-23T03:18:50;10.40;;;7.50;;
37483;SDS011;23337;52.212;9.926;2022-07-23T03:21:15;8.20;;;7.40;;
37483;SDS011;23337;52.212;9.926;2022-07-23T03:23:42;9.03;;;7.20;;
37483;SDS011;23337;52.212;9.926;2022-07-23T03:26:08;9.30;;;7.97;;
37483;SDS011;23337;52.212;9.926;2022-07-23T03:28:34;9.57;;;7.90;;
37483;SDS011;23337;52.212;9.926;2022-07-23T03:31:00;9.50;;;7.53;;
37483;SDS011;23337;52.212;9.926;2022-07-23T03:33:26;8.37;;;7.30;;
37483;SDS011;23337;52.212;9.926;2022-07-23T03:35:51;9.70;;;8.23;;
37483;SDS011;23337;52.212;9.926;2022-07-23T03:38:17;11.10;;;7.53;;
37483;SDS011;23337;52.212;9.926;2022-07-23T03:40:43;8.97;;;7.67;;
37483;SDS011;23337;52.212;9.926;2022-07-23T03:43:09;7.87;;;6.97;;
37483;SDS011;23337;52.212;9.926;2022-07-23T03:45:35;9.03;;;7.53;;
37483;SDS011;23337;52.212;9.926;2022-07-23T03:48:01;9.87;;;8.23;;
37483;SDS011;23337;52.212;9.926;2022-07-23T03:50:27;9.20;;;8.17;;
37483;SDS011;23337;52.212;9.926;2022-07-23T03:52:53;9.30;;;7.77;;
37483;SDS011;23337;52.212;9.926;2022-07-23T03:55:19;11.33;;;8.13;;
37483;SDS011;23337;52.212;9.926;2022-07-23T03:57:45;8.83;;;7.40;;
37483;SDS011;23337;52.212;9.926;2022-07-23T04:00:12;10.87;;;7.43;;
37483;SDS011;23337;52.212;9.926;2022-07-23T04:02:38;15.83;;;7.60;;
37483;SDS011;23337;52.212;9.926;2022-07-23T04:05:04;10.37;;;7.17;;
37483;SDS011;23337;52.212;9.926;2022-07-23T04:07:31;15.47;;;8.13;;
37483;SDS011;23337;52.212;9.926;2022-07-23T04:09:57;8.83;;;6.77;;
37483;SDS011;23337;52.212;9.926;2022-07-23T04:12:23;8.70;;;6.70;;
37483;SDS011;23337;52.212;9.926;2022-07-23T04:14:49;9.60;;;8.10;;
37483;SDS011;23337;52.212;9.926;2022-07-23T04:17:16;10.13;;;7.20;;
37483;SDS011;23337;52.212;9.926;2022-07-23T04:19:42;7.77;;;6.57;;
37483;SDS011;23337;52.212;9.926;2022-07-23T04:22:09;7.60;;;6.87;;
37483;SDS011;23337;52.212;9.926;2022-07-23T04:24:35;9.47;;;7.60;;
37483;SDS011;23337;52.212;9.926;2022-07-23T04:27:01;9.60;;;6.60;;
37483;SDS011;23337;52.212;9.926;2022-07-23T04:29:27;9.47;;;7.40;;
37483;SDS011;23337;52.212;9.926;2022-07-23T04:31:53;7.70;;;6.90;;
37483;SDS011;23337;52.212;9.926;2022-07-23T04:34:19;8.40;;;6.93;;
37483;SDS011;23337;52.212;9.926;2022-07-23T04:36:45;7.63;;;6.83;;
37483;SDS011;23337;52.212;9.926;2022-07-23T04:39:11;8.20;;;7.40;;
37483;SDS011;23337;52.212;9.926;2022-07-23T04:41:37;8.07;;;7.07;;
37483;SDS011;23337;52.212;9.926;2022-07-23T04:44:03;9.80;;;6.97;;
37483;SDS011;23337;52.212;9.926;2022-07-23T04:46:29;10.43;;;7.37;;
37483;SDS011;23337;52.212;9.926;2022-07-23T04:48:55;10.03;;;7.47;;
37483;SDS011;23337;52.212;9.926;2022-07-23T04:51:21;11.60;;;7.00;;
37483;SDS011;23337;52.212;9.926;2022-07-23T04:53:47;9.20;;;7.30;;
37483;SDS011;23337;52.212;9.926;2022-07-23T04:56:13;9.60;;;6.83;;
37483;SDS011;23337;52.212;9.926;2022-07-23T04:58:39;10.67;;;7.80;;
37483;SDS011;23337;52.212;9.926;2022-07-23T05:01:05;8.47;;;6.63;;
37483;SDS011;23337;52.212;9.926;2022-07-23T05:03:31;8.13;;;7.17;;
37483;SDS011;23337;52.212;9.926;2022-07-23T05:05:57;8.63;;;7.73;;
37483;SDS011;23337;52.212;9.926;2022-07-23T05:08:23;11.00;;;7.47;;
37483;SDS011;23337;52.212;9.926;2022-07-23T05:10:49;8.03;;;7.23;;
37483;SDS011;23337;52.212;9.926;2022-07-23T05:13:15;8.93;;;6.93;;
37483;SDS011;23337;52.212;9.926;2022-07-23T05:15:42;9.90;;;7.70;;
37483;SDS011;23337;52.212;9.926;2022-07-23T05:18:08;7.80;;;7.00;;
37483;SDS011;23337;52.212;9.926;2022-07-23T05:20:34;10.00;;;7.63;;
37483;SDS011;23337;52.212;9.926;2022-07-23T05:23:00;9.33;;;6.40;;
37483;SDS011;23337;52.212;9.926;2022-07-23T05:25:26;10.20;;;6.67;;
37483;SDS011;23337;52.212;9.926;2022-07-23T05:27:52;7.23;;;6.63;;
37483;SDS011;23337;52.212;9.926;2022-07-23T05:30:18;9.40;;;7.03;;
37483;SDS011;23337;52.212;9.926;2022-07-23T05:32:44;7.90;;;6.40;;
37483;SDS011;23337;52.212;9.926;2022-07-23T05:35:10;7.37;;;6.67;;
37483;SDS011;23337;52.212;9.926;2022-07-23T05:37:36;9.80;;;7.27;;
37483;SDS011;23337;52.212;9.926;2022-07-23T05:40:03;7.87;;;7.17;;
37483;SDS011;23337;52.212;9.926;2022-07-23T05:42:31;8.43;;;7.17;;
37483;SDS011;23337;52.212;9.926;2022-07-23T05:44:57;7.57;;;6.83;;
37483;SDS011;23337;52.212;9.926;2022-07-23T05:47:23;8.20;;;7.40;;
37483;SDS011;23337;52.212;9.926;2022-07-23T05:49:49;7.43;;;6.63;;
37483;SDS011;23337;52.212;9.926;2022-07-23T05:52:15;9.60;;;6.67;;
37483;SDS011;23337;52.212;9.926;2022-07-23T05:54:41;7.97;;;6.40;;
37483;SDS011;23337;52.212;9.926;2022-07-23T05:57:07;9.50;;;6.50;;
37483;SDS011;23337;52.212;9.926;2022-07-23T05:59:33;11.93;;;7.27;;
37483;SDS011;23337;52.212;9.926;2022-07-23T06:01:59;8.70;;;5.97;;
37483;SDS011;23337;52.212;9.926;2022-07-23T06:04:25;8.33;;;6.30;;
37483;SDS011;23337;52.212;9.926;2022-07-23T06:06:51;7.67;;;6.73;;
37483;SDS011;23337;52.212;9.926;2022-07-23T06:09:17;7.80;;;6.90;;
37483;SDS011;23337;52.212;9.926;2022-07-23T06:11:43;6.57;;;5.97;;
37483;SDS011;23337;52.212;9.926;2022-07-23T06:14:09;9.40;;;6.50;;
37483;SDS011;23337;52.212;9.926;2022-07-23T06:16:35;8.07;;;6.00;;
37483;SDS011;23337;52.212;9.926;2022-07-23T06:19:01;9.73;;;7.10;;
37483;SDS011;23337;52.212;9.926;2022-07-23T06:21:27;9.13;;;6.03;;
37483;SDS011;23337;52.212;9.926;2022-07-23T06:23:53;8.37;;;5.73;;
37483;SDS011;23337;52.212;9.926;2022-07-23T06:26:19;5.30;;;4.33;;
37483;SDS011;23337;52.212;9.926;2022-07-23T06:28:45;5.00;;;3.90;;
37483;SDS011;23337;52.212;9.926;2022-07-23T06:31:11;8.47;;;4.60;;
37483;SDS011;23337;52.212;9.926;2022-07-23T06:33:37;7.47;;;4.30;;
37483;SDS011;23337;52.212;9.926;2022-07-23T06:36:03;5.33;;;3.37;;
37483;SDS011;23337;52.212;9.926;2022-07-23T06:38:29;5.17;;;3.67;;
37483;SDS011;23337;52.212;9.926;2022-07-23T06:40:55;4.93;;;3.87;;
37483;SDS011;23337;52.212;9.926;2022-07-23T06:43:21;5.67;;;4.00;;
37483;SDS011;23337;52.212;9.926;2022-07-23T06:45:47;5.70;;;4.20;;
37483;SDS011;23337;52.212;9.926;2022-07-23T06:48:12;7.00;;;4.97;;
37483;SDS011;23337;52.212;9.926;2022-07-23T06:50:38;8.77;;;4.57;;
37483;SDS011;23337;52.212;9.926;2022-07-23T06:53:04;5.97;;;4.47;;
37483;SDS011;23337;52.212;9.926;2022-07-23T06:55:30;5.53;;;3.70;;
37483;SDS011;23337;52.212;9.926;2022-07-23T06:57:56;7.57;;;4.37;;
37483;SDS011;23337;52.212;9.926;2022-07-23T07:00:22;5.57;;;3.90;;
37483;SDS011;23337;52.212;9.926;2022-07-23T07:02:52;4.33;;;3.30;;
37483;SDS011;23337;52.212;9.926;2022-07-23T07:05:18;4.03;;;3.03;;
37483;SDS011;23337;52.212;9.926;2022-07-23T07:07:47;4.27;;;3.50;;
37483;SDS011;23337;52.212;9.926;2022-07-23T07:10:13;5.50;;;3.90;;
37483;SDS011;23337;52.212;9.926;2022-07-23T07:12:41;5.13;;;4.53;;
37483;SDS011;23337;52.212;9.926;2022-07-23T07:15:07;4.43;;;3.87;;
37483;SDS011;23337;52.212;9.926;2022-07-23T07:17:33;4.07;;;3.67;;
37483;SDS011;23337;52.212;9.926;2022-07-23T07:19:59;4.53;;;4.13;;
37483;SDS011;23337;52.212;9.926;2022-07-23T07:22:25;6.07;;;3.80;;
37483;SDS011;23337;52.212;9.926;2022-07-23T07:24:51;5.00;;;4.03;;
37483;SDS011;23337;52.212;9.926;2022-07-23T07:27:17;4.40;;;3.73;;
37483;SDS011;23337;52.212;9.926;2022-07-23T07:29:43;4.67;;;3.70;;
37483;SDS011;23337;52.212;9.926;2022-07-23T07:32:09;5.23;;;3.77;;
37483;SDS011;23337;52.212;9.926;2022-07-23T07:34:35;4.83;;;3.10;;
37483;SDS011;23337;52.212;9.926;2022-07-23T07:37:01;3.30;;;3.00;;
37483;SDS011;23337;52.212;9.926;2022-07-23T07:39:27;6.27;;;4.00;;
37483;SDS011;23337;52.212;9.926;2022-07-23T07:41:54;5.27;;;3.07;;
37483;SDS011;23337;52.212;9.926;2022-07-23T07:44:20;6.90;;;3.20;;
37483;SDS011;23337;52.212;9.926;2022-07-23T07:46:46;3.43;;;2.80;;
37483;SDS011;23337;52.212;9.926;2022-07-23T07:49:12;4.77;;;3.60;;
37483;SDS011;23337;52.212;9.926;2022-07-23T07:51:38;5.67;;;3.27;;
37483;SDS011;23337;52.212;9.926;2022-07-23T07:54:04;3.93;;;3.53;;
37483;SDS011;23337;52.212;9.926;2022-07-23T07:56:30;3.50;;;2.57;;
37483;SDS011;23337;52.212;9.926;2022-07-23T07:58:56;3.67;;;3.10;;
37483;SDS011;23337;52.212;9.926;2022-07-23T08:01:23;6.23;;;3.23;;
37483;SDS011;23337;52.212;9.926;2022-07-23T08:03:49;3.67;;;3.30;;
37483;SDS011;23337;52.212;9.926;2022-07-23T08:06:15;5.93;;;3.10;;
37483;SDS011;23337;52.212;9.926;2022-07-23T08:08:41;5.23;;;2.97;;
37483;SDS011;23337;52.212;9.926;2022-07-23T08:11:07;5.30;;;3.00;;
37483;SDS011;23337;52.212;9.926;2022-07-23T08:13:33;4.70;;;2.60;;
37483;SDS011;23337;52.212;9.926;2022-07-23T08:15:58;4.17;;;2.73;;
37483;SDS011;23337;52.212;9.926;2022-07-23T08:18:24;3.60;;;2.40;;
37483;SDS011;23337;52.212;9.926;2022-07-23T08:20:50;4.20;;;2.73;;
37483;SDS011;23337;52.212;9.926;2022-07-23T08:23:16;3.47;;;3.17;;
37483;SDS011;23337;52.212;9.926;2022-07-23T08:25:44;3.77;;;3.20;;
37483;SDS011;23337;52.212;9.926;2022-07-23T08:28:11;4.53;;;3.60;;
37483;SDS011;23337;52.212;9.926;2022-07-23T08:30:38;4.73;;;4.23;;
37483;SDS011;23337;52.212;9.926;2022-07-23T08:35:33;3.63;;;3.23;;
37483;SDS011;23337;52.212;9.926;2022-07-23T08:38:00;3.10;;;2.73;;
37483;SDS011;23337;52.212;9.926;2022-07-23T08:40:27;8.13;;;3.20;;
37483;SDS011;23337;52.212;9.926;2022-07-23T08:42:54;4.17;;;3.40;;
37483;SDS011;23337;52.212;9.926;2022-07-23T08:45:20;4.20;;;3.17;;
37483;SDS011;23337;52.212;9.926;2022-07-23T08:47:48;3.73;;;2.30;;
37483;SDS011;23337;52.212;9.926;2022-07-23T08:50:14;4.40;;;3.00;;
37483;SDS011;23337;52.212;9.926;2022-07-23T08:52:41;6.50;;;2.70;;
37483;SDS011;23337;52.212;9.926;2022-07-23T08:55:07;3.53;;;3.00;;
37483;SDS011;23337;52.212;9.926;2022-07-23T08:57:33;4.37;;;2.90;;
37483;SDS011;23337;52.212;9.926;2022-07-23T08:59:59;3.40;;;2.10;;
37483;SDS011;23337;52.212;9.926;2022-07-23T09:02:25;2.87;;;2.10;;
37483;SDS011;23337;52.212;9.926;2022-07-23T09:04:51;4.50;;;2.50;;
37483;SDS011;23337;52.212;9.926;2022-07-23T09:07:17;3.57;;;2.37;;
37483;SDS011;23337;52.212;9.926;2022-07-23T09:09:43;4.80;;;2.77;;
37483;SDS011;23337;52.212;9.926;2022-07-23T09:12:10;3.67;;;1.93;;
37483;SDS011;23337;52.212;9.926;2022-07-23T09:14:37;3.80;;;2.30;;
37483;SDS011;23337;52.212;9.926;2022-07-23T09:17:10;2.10;;;1.77;;
37483;SDS011;23337;52.212;9.926;2022-07-23T09:19:36;3.73;;;1.93;;
37483;SDS011;23337;52.212;9.926;2022-07-23T09:27:45;2.87;;;1.67;;
37483;SDS011;23337;52.212;9.926;2022-07-23T09:30:11;4.33;;;1.60;;
37483;SDS011;23337;52.212;9.926;2022-07-23T09:32:38;2.83;;;1.90;;
37483;SDS011;23337;52.212;9.926;2022-07-23T09:35:04;2.93;;;1.97;;
37483;SDS011;23337;52.212;9.926;2022-07-23T09:37:30;4.53;;;2.43;;
37483;SDS011;23337;52.212;9.926;2022-07-23T09:40:03;4.23;;;2.33;;
37483;SDS011;23337;52.212;9.926;2022-07-23T09:42:29;3.07;;;1.90;;
37483;SDS011;23337;52.212;9.926;2022-07-23T09:44:56;2.33;;;1.80;;
37483;SDS011;23337;52.212;9.926;2022-07-23T09:47:23;3.50;;;1.60;;
37483;SDS011;23337;52.212;9.926;2022-07-23T09:52:29;2.87;;;1.83;;
37483;SDS011;23337;52.212;9.926;2022-07-23T09:54:59;3.63;;;2.13;;
37483;SDS011;23337;52.212;9.926;2022-07-23T09:57:25;3.33;;;2.23;;
37483;SDS011;23337;52.212;9.926;2022-07-23T09:59:52;3.27;;;1.73;;
37483;SDS011;23337;52.212;9.926;2022-07-23T10:02:18;3.10;;;1.97;;
37483;SDS011;23337;52.212;9.926;2022-07-23T10:04:45;3.17;;;1.87;;
37483;SDS011;23337;52.212;9.926;2022-07-23T10:07:11;2.10;;;1.60;;
37483;SDS011;23337;52.212;9.926;2022-07-23T10:09:40;3.50;;;1.83;;
37483;SDS011;23337;52.212;9.926;2022-07-23T10:12:10;2.83;;;1.93;;
37483;SDS011;23337;52.212;9.926;2022-07-23T10:14:40;3.83;;;1.60;;
37483;SDS011;23337;52.212;9.926;2022-07-23T10:17:06;3.10;;;1.87;;
37483;SDS011;23337;52.212;9.926;2022-07-23T10:19:33;3.03;;;1.70;;
37483;SDS011;23337;52.212;9.926;2022-07-23T10:22:09;1.90;;;1.80;;
37483;SDS011;23337;52.212;9.926;2022-07-23T10:32:26;2.03;;;1.30;;
37483;SDS011;23337;52.212;9.926;2022-07-23T10:35:03;3.57;;;1.70;;
37483;SDS011;23337;52.212;9.926;2022-07-23T10:37:36;2.03;;;1.50;;
37483;SDS011;23337;52.212;9.926;2022-07-23T10:40:18;3.07;;;2.03;;
37483;SDS011;23337;52.212;9.926;2022-07-23T10:42:46;3.23;;;1.80;;
37483;SDS011;23337;52.212;9.926;2022-07-23T10:45:31;3.23;;;1.90;;
37483;SDS011;23337;52.212;9.926;2022-07-23T10:48:11;2.60;;;1.77;;
37483;SDS011;23337;52.212;9.926;2022-07-23T10:50:38;2.27;;;2.07;;
37483;SDS011;23337;52.212;9.926;2022-07-23T10:53:08;2.57;;;2.17;;
37483;SDS011;23337;52.212;9.926;2022-07-23T10:58:02;3.47;;;1.70;;
37483;SDS011;23337;52.212;9.926;2022-07-23T11:00:30;2.97;;;1.73;;
37483;SDS011;23337;52.212;9.926;2022-07-23T11:02:57;2.10;;;1.70;;
37483;SDS011;23337;52.212;9.926;2022-07-23T11:05:25;2.60;;;1.97;;
37483;SDS011;23337;52.212;9.926;2022-07-23T11:21:39;3.03;;;1.60;;
37483;SDS011;23337;52.212;9.926;2022-07-23T11:34:29;3.00;;;1.50;;
37483;SDS011;23337;52.212;9.926;2022-07-23T11:36:56;1.50;;;1.40;;
37483;SDS011;23337;52.212;9.926;2022-07-23T11:39:22;4.73;;;1.60;;
37483;SDS011;23337;52.212;9.926;2022-07-23T11:41:50;2.60;;;1.27;;
37483;SDS011;23337;52.212;9.926;2022-07-23T11:46:56;1.10;;;1.00;;
37483;SDS011;23337;52.212;9.926;2022-07-23T11:49:22;3.07;;;1.50;;
37483;SDS011;23337;52.212;9.926;2022-07-23T11:52:02;2.60;;;1.33;;
37483;SDS011;23337;52.212;9.926;2022-07-23T11:54:29;2.63;;;1.30;;
37483;SDS011;23337;52.212;9.926;2022-07-23T11:56:58;1.40;;;1.20;;
37483;SDS011;23337;52.212;9.926;2022-07-23T11:59:24;2.43;;;1.07;;
37483;SDS011;23337;52.212;9.926;2022-07-23T12:04:24;2.77;;;1.20;;
37483;SDS011;23337;52.212;9.926;2022-07-23T12:06:50;2.87;;;1.37;;
37483;SDS011;23337;52.212;9.926;2022-07-23T12:09:16;1.20;;;1.10;;
37483;SDS011;23337;52.212;9.926;2022-07-23T12:12:00;1.47;;;1.30;;
37483;SDS011;23337;52.212;9.926;2022-07-23T12:14:27;2.50;;;1.30;;
37483;SDS011;23337;52.212;9.926;2022-07-23T12:17:06;1.87;;;1.10;;
37483;SDS011;23337;52.212;9.926;2022-07-23T12:19:32;1.37;;;1.13;;
37483;SDS011;23337;52.212;9.926;2022-07-23T12:21:58;2.73;;;1.43;;
37483;SDS011;23337;52.212;9.926;2022-07-23T12:24:24;1.30;;;1.10;;
37483;SDS011;23337;52.212;9.926;2022-07-23T12:29:35;1.20;;;1.10;;
37483;SDS011;23337;52.212;9.926;2022-07-23T12:32:01;2.67;;;1.00;;
37483;SDS011;23337;52.212;9.926;2022-07-23T12:34:27;1.27;;;0.87;;
37483;SDS011;23337;52.212;9.926;2022-07-23T12:36:53;5.70;;;1.13;;
37483;SDS011;23337;52.212;9.926;2022-07-23T12:39:29;2.33;;;0.90;;
37483;SDS011;23337;52.212;9.926;2022-07-23T12:41:56;1.13;;;1.00;;
37483;SDS011;23337;52.212;9.926;2022-07-23T12:44:22;1.37;;;0.80;;
37483;SDS011;23337;52.212;9.926;2022-07-23T12:46:57;4.77;;;1.10;;
37483;SDS011;23337;52.212;9.926;2022-07-23T12:49:24;3.37;;;0.90;;
37483;SDS011;23337;52.212;9.926;2022-07-23T12:51:50;0.90;;;0.77;;
37483;SDS011;23337;52.212;9.926;2022-07-23T12:54:17;0.67;;;0.67;;
37483;SDS011;23337;52.212;9.926;2022-07-23T12:56:46;2.90;;;0.90;;
37483;SDS011;23337;52.212;9.926;2022-07-23T12:59:13;2.77;;;0.93;;
37483;SDS011;23337;52.212;9.926;2022-07-23T13:01:42;0.83;;;0.80;;
37483;SDS011;23337;52.212;9.926;2022-07-23T13:04:14;1.93;;;0.93;;
37483;SDS011;23337;52.212;9.926;2022-07-23T13:09:10;2.00;;;1.07;;
37483;SDS011;23337;52.212;9.926;2022-07-23T13:11:37;5.70;;;1.70;;
37483;SDS011;23337;52.212;9.926;2022-07-23T13:14:03;2.10;;;0.80;;
37483;SDS011;23337;52.212;9.926;2022-07-23T13:16:30;2.43;;;0.90;;
37483;SDS011;23337;52.212;9.926;2022-07-23T13:18:57;1.57;;;0.90;;
37483;SDS011;23337;52.212;9.926;2022-07-23T13:21:23;1.80;;;0.67;;
37483;SDS011;23337;52.212;9.926;2022-07-23T13:23:49;2.63;;;1.30;;
37483;SDS011;23337;52.212;9.926;2022-07-23T13:26:16;1.47;;;0.90;;
37483;SDS011;23337;52.212;9.926;2022-07-23T13:28:42;1.00;;;0.80;;
37483;SDS011;23337;52.212;9.926;2022-07-23T13:31:08;0.93;;;0.70;;
37483;SDS011;23337;52.212;9.926;2022-07-23T13:33:34;1.20;;;0.70;;
37483;SDS011;23337;52.212;9.926;2022-07-23T13:36:00;1.90;;;0.70;;
37483;SDS011;23337;52.212;9.926;2022-07-23T13:38:26;2.20;;;0.87;;
37483;SDS011;23337;52.212;9.926;2022-07-23T13:40:52;2.10;;;0.70;;
37483;SDS011;23337;52.212;9.926;2022-07-23T13:43:19;2.30;;;0.63;;
37483;SDS011;23337;52.212;9.926;2022-07-23T13:45:46;1.33;;;0.80;;
37483;SDS011;23337;52.212;9.926;2022-07-23T13:48:12;1.13;;;0.80;;
37483;SDS011;23337;52.212;9.926;2022-07-23T13:50:38;1.50;;;0.80;;
37483;SDS011;23337;52.212;9.926;2022-07-23T13:53:05;1.50;;;0.67;;
37483;SDS011;23337;52.212;9.926;2022-07-23T13:55:32;0.60;;;0.50;;
37483;SDS011;23337;52.212;9.926;2022-07-23T13:57:59;1.90;;;0.87;;
37483;SDS011;23337;52.212;9.926;2022-07-23T14:00:26;1.70;;;0.60;;
37483;SDS011;23337;52.212;9.926;2022-07-23T14:02:52;1.23;;;0.90;;
37483;SDS011;23337;52.212;9.926;2022-07-23T14:05:18;3.50;;;0.70;;
37483;SDS011;23337;52.212;9.926;2022-07-23T14:07:44;1.57;;;0.93;;
37483;SDS011;23337;52.212;9.926;2022-07-23T14:10:12;1.03;;;0.67;;
37483;SDS011;23337;52.212;9.926;2022-07-23T14:12:38;1.97;;;0.80;;
37483;SDS011;23337;52.212;9.926;2022-07-23T14:15:05;7.27;;;1.20;;
37483;SDS011;23337;52.212;9.926;2022-07-23T14:17:31;3.07;;;0.73;;
37483;SDS011;23337;52.212;9.926;2022-07-23T14:19:57;1.50;;;0.90;;
37483;SDS011;23337;52.212;9.926;2022-07-23T14:22:23;1.47;;;0.73;;
37483;SDS011;23337;52.212;9.926;2022-07-23T14:24:49;2.20;;;1.10;;
37483;SDS011;23337;52.212;9.926;2022-07-23T14:27:15;2.87;;;1.17;;
37483;SDS011;23337;52.212;9.926;2022-07-23T14:29:41;1.30;;;0.50;;
37483;SDS011;23337;52.212;9.926;2022-07-23T14:32:07;1.27;;;0.70;;
37483;SDS011;23337;52.212;9.926;2022-07-23T14:34:34;1.73;;;0.70;;
37483;SDS011;23337;52.212;9.926;2022-07-23T14:37:00;1.60;;;0.73;;
37483;SDS011;23337;52.212;9.926;2022-07-23T14:39:26;3.50;;;0.80;;
37483;SDS011;23337;52.212;9.926;2022-07-23T14:41:52;1.57;;;0.60;;
37483;SDS011;23337;52.212;9.926;2022-07-23T14:44:19;0.53;;;0.50;;
37483;SDS011;23337;52.212;9.926;2022-07-23T14:46:44;1.10;;;0.60;;
37483;SDS011;23337;52.212;9.926;2022-07-23T14:49:10;1.60;;;0.43;;
37483;SDS011;23337;52.212;9.926;2022-07-23T14:51:36;0.60;;;0.60;;
37483;SDS011;23337;52.212;9.926;2022-07-23T14:54:03;1.60;;;0.73;;
37483;SDS011;23337;52.212;9.926;2022-07-23T14:56:29;1.97;;;0.60;;
37483;SDS011;23337;52.212;9.926;2022-07-23T14:58:55;2.00;;;0.73;;
37483;SDS011;23337;52.212;9.926;2022-07-23T15:01:22;1.07;;;0.53;;
37483;SDS011;23337;52.212;9.926;2022-07-23T15:03:48;2.63;;;0.53;;
37483;SDS011;23337;52.212;9.926;2022-07-23T15:06:15;0.63;;;0.47;;
37483;SDS011;23337;52.212;9.926;2022-07-23T15:08:41;0.77;;;0.40;;
37483;SDS011;23337;52.212;9.926;2022-07-23T15:11:07;1.20;;;0.60;;
37483;SDS011;23337;52.212;9.926;2022-07-23T15:13:36;1.17;;;0.50;;
37483;SDS011;23337;52.212;9.926;2022-07-23T15:16:03;1.33;;;0.60;;
37483;SDS011;23337;52.212;9.926;2022-07-23T15:18:29;0.83;;;0.67;;
37483;SDS011;23337;52.212;9.926;2022-07-23T15:20:55;2.87;;;0.60;;
37483;SDS011;23337;52.212;9.926;2022-07-23T15:23:21;0.40;;;0.40;;
37483;SDS011;23337;52.212;9.926;2022-07-23T15:25:47;0.87;;;0.40;;
37483;SDS011;23337;52.212;9.926;2022-07-23T15:28:13;1.13;;;0.50;;
37483;SDS011;23337;52.212;9.926;2022-07-23T15:30:39;2.30;;;0.60;;
37483;SDS011;23337;52.212;9.926;2022-07-23T15:33:05;1.50;;;0.77;;
37483;SDS011;23337;52.212;9.926;2022-07-23T15:35:31;0.83;;;0.50;;
37483;SDS011;23337;52.212;9.926;2022-07-23T15:37:57;2.30;;;0.47;;